Terminal Aerodrome Forecast
Issued by NWS

Home | Current Version | Previous Version | Text Only | Print | Product List | Glossary On
Versions: 1 2 3 4 5 6 7 8 9 10 11 12 13
000
FTUS44 KCRP 301700
TAFLRD
TAF
KLRD 301729Z 3018/3118 14011KT P6SM FEW030 BKN250
     FM310200 13015KT P6SM FEW040 BKN200
     FM310800 16008KT P6SM SCT007 OVC015
      TEMPO 3111/3114 BKN007
     FM311700 16012KT P6SM BKN030=

USA.gov is the U.S. government's official web portal to all federal, state and local government web resources and services.